createdAt,value
2018-04-16T00:00:01.263Z,1008.12
2018-04-16T00:01:01.170Z,1008.19
2018-04-16T00:02:01.151Z,1008.11
2018-04-16T00:03:01.177Z,1008.12
2018-04-16T00:04:01.416Z,1008.11
2018-04-16T00:05:01.867Z,1008.1
2018-04-16T00:06:02.304Z,1008.1
2018-04-16T00:07:02.337Z,1008.12
2018-04-16T00:08:02.367Z,1008.16
2018-04-16T00:09:02.717Z,1008.15
2018-04-16T00:10:02.415Z,1008.12
2018-04-16T00:11:02.460Z,1008.08
2018-04-16T00:12:02.869Z,1008.05
2018-04-16T00:13:03.072Z,1008.04
2018-04-16T00:14:03.094Z,1008.02
2018-04-16T00:15:03.126Z,1008.04
2018-04-16T00:16:03.297Z,1008.03
2018-04-16T00:17:03.471Z,1008.03
2018-04-16T00:18:03.541Z,1008.03
2018-04-16T00:19:03.607Z,1008.03
2018-04-16T00:20:03.569Z,1008.02
2018-04-16T00:21:04.032Z,1007.94
2018-04-16T00:22:04.066Z,1007.92
2018-04-16T00:23:04.483Z,1007.93
2018-04-16T00:24:04.650Z,1007.9
2018-04-16T00:25:05.112Z,1007.92
2018-04-16T00:26:05.520Z,1007.96
2018-04-16T00:27:05.937Z,1007.94
2018-04-16T00:28:06.336Z,1007.89
2018-04-16T00:29:06.485Z,1007.93
2018-04-16T00:30:06.910Z,1007.94
2018-04-16T00:31:06.959Z,1007.9
2018-04-16T00:32:07.004Z,1007.89
2018-04-16T00:33:07.448Z,1007.89
2018-04-16T00:34:07.444Z,1007.89
2018-04-16T00:35:07.793Z,1007.88
2018-04-16T00:36:07.976Z,1007.84
2018-04-16T00:37:08.239Z,1007.81
2018-04-16T00:38:08.409Z,1007.79
2018-04-16T00:39:08.354Z,1007.8
2018-04-16T00:40:08.507Z,1007.78
2018-04-16T00:41:08.575Z,1007.78
2018-04-16T00:42:08.363Z,1007.81
2018-04-16T00:43:08.596Z,1007.81
2018-04-16T00:44:08.752Z,1007.87
2018-04-16T00:45:08.772Z,1007.84
2018-04-16T00:46:09.196Z,1007.81
2018-04-16T00:47:09.626Z,1007.88
2018-04-16T00:48:10.107Z,1007.82
2018-04-16T00:49:10.535Z,1007.82
2018-04-16T00:50:10.542Z,1007.79
2018-04-16T00:51:10.569Z,1007.83
2018-04-16T00:52:10.590Z,1007.77
2018-04-16T00:53:10.707Z,1007.73
2018-04-16T00:54:10.936Z,1007.74
2018-04-16T00:55:10.963Z,1007.78
2018-04-16T00:56:10.990Z,1007.77
2018-04-16T00:57:11.442Z,1007.82
2018-04-16T00:58:11.535Z,1007.81
2018-04-16T00:59:11.562Z,1007.81
2018-04-16T01:00:12.582Z,1007.82
2018-04-16T01:01:12.980Z,1007.85
2018-04-16T01:02:13.107Z,1007.85
2018-04-16T01:03:13.130Z,1007.85
2018-04-16T01:04:13.167Z,1007.83
2018-04-16T01:05:13.543Z,1007.85
2018-04-16T01:06:13.567Z,1007.91
2018-04-16T01:07:13.788Z,1007.89
2018-04-16T01:08:13.813Z,1007.97
2018-04-16T01:09:14.235Z,1007.94
2018-04-16T01:10:14.269Z,1007.96
2018-04-16T01:11:14.316Z,1008.03
2018-04-16T01:12:14.318Z,1007.95
2018-04-16T01:13:14.384Z,1007.92
2018-04-16T01:14:14.612Z,1007.94
2018-04-16T01:15:14.639Z,1007.88
2018-04-16T01:16:14.692Z,1007.88
2018-04-16T01:17:14.692Z,1007.84
2018-04-16T01:18:14.744Z,1007.81
2018-04-16T01:19:15.013Z,1007.83
2018-04-16T01:20:15.455Z,1007.78
2018-04-16T01:21:15.467Z,1007.8
2018-04-16T01:22:15.788Z,1007.75
2018-04-16T01:23:16.218Z,1007.75
2018-04-16T01:24:16.613Z,1007.69
2018-04-16T01:25:16.655Z,1007.68
2018-04-16T01:26:16.667Z,1007.71
2018-04-16T01:27:17.141Z,1007.64
2018-04-16T01:28:17.172Z,1007.71
2018-04-16T01:29:17.632Z,1007.75
2018-04-16T01:30:17.785Z,1007.69
2018-04-16T01:31:17.812Z,1007.78
2018-04-16T01:32:18.170Z,1007.76
2018-04-16T01:33:18.576Z,1007.74
2018-04-16T01:34:18.604Z,1007.8
2018-04-16T01:35:18.772Z,1007.82
2018-04-16T01:36:18.779Z,1007.76
2018-04-16T01:37:18.807Z,1007.73
2018-04-16T01:38:18.849Z,1007.7
2018-04-16T01:39:19.246Z,1007.72
2018-04-16T01:40:19.336Z,1007.73
2018-04-16T01:41:19.731Z,1007.72
2018-04-16T01:42:19.771Z,1007.69
2018-04-16T01:43:20.291Z,1007.72
2018-04-16T01:44:20.472Z,1007.69
2018-04-16T01:45:20.873Z,1007.68
2018-04-16T01:46:21.310Z,1007.7
2018-04-16T01:47:21.350Z,1007.69
2018-04-16T01:48:21.775Z,1007.75
2018-04-16T01:49:21.902Z,1007.73
2018-04-16T01:50:21.928Z,1007.68
2018-04-16T01:51:22.078Z,1007.69
2018-04-16T01:52:22.503Z,1007.72
2018-04-16T01:53:22.600Z,1007.66
2018-04-16T01:54:23.009Z,1007.63
2018-04-16T01:55:23.153Z,1007.64
2018-04-16T01:56:23.181Z,1007.66
2018-04-16T01:57:23.210Z,1007.65
2018-04-16T01:58:23.240Z,1007.67
2018-04-16T01:59:23.271Z,1007.64
2018-04-16T02:00:32.818Z,1007.63
2018-04-16T02:01:32.848Z,1007.59
2018-04-16T02:02:32.876Z,1007.61
2018-04-16T02:03:33.318Z,1007.56
2018-04-16T02:04:33.709Z,1007.56
2018-04-16T02:05:33.671Z,1007.5
2018-04-16T02:06:33.714Z,1007.47
2018-04-16T02:07:33.854Z,1007.45
2018-04-16T02:08:34.103Z,1007.49
2018-04-16T02:09:34.525Z,1007.49
2018-04-16T02:10:34.935Z,1007.46
2018-04-16T02:11:35.158Z,1007.44
2018-04-16T02:12:35.172Z,1007.45
2018-04-16T02:13:35.554Z,1007.36
2018-04-16T02:14:35.878Z,1007.37
2018-04-16T02:15:35.851Z,1007.34
2018-04-16T02:16:35.899Z,1007.32
2018-04-16T02:17:36.076Z,1007.29
2018-04-16T02:18:36.177Z,1007.29
2018-04-16T02:19:36.229Z,1007.25
2018-04-16T02:20:36.264Z,1007.24
2018-04-16T02:21:36.404Z,1007.26
2018-04-16T02:22:36.413Z,1007.25
2018-04-16T02:23:36.452Z,1007.25
2018-04-16T02:24:36.484Z,1007.23
2018-04-16T02:25:36.496Z,1007.31
2018-04-16T02:26:36.553Z,1007.32
2018-04-16T02:27:36.740Z,1007.35
2018-04-16T02:28:36.772Z,1007.31
2018-04-16T02:29:36.800Z,1007.36
2018-04-16T02:30:37.539Z,1007.35
2018-04-16T02:31:37.308Z,1007.42
2018-04-16T02:32:37.410Z,1007.43
2018-04-16T02:33:37.434Z,1007.46
2018-04-16T02:34:37.487Z,1007.49
2018-04-16T02:35:38.116Z,1007.5
2018-04-16T02:36:38.071Z,1007.5
2018-04-16T02:37:38.494Z,1007.53
2018-04-16T02:38:38.554Z,1007.53
2018-04-16T02:39:39.023Z,1007.57
2018-04-16T02:40:39.001Z,1007.53
2018-04-16T02:41:39.015Z,1007.56
2018-04-16T02:42:39.048Z,1007.54
2018-04-16T02:43:39.338Z,1007.56
2018-04-16T02:44:39.110Z,1007.58
2018-04-16T02:45:39.135Z,1007.57
2018-04-16T02:46:39.256Z,1007.56
2018-04-16T02:47:39.458Z,1007.55
2018-04-16T02:48:39.755Z,1007.53
2018-04-16T02:49:39.511Z,1007.54
2018-04-16T02:50:39.516Z,1007.54
2018-04-16T02:51:39.585Z,1007.55
2018-04-16T02:52:39.594Z,1007.56
2018-04-16T02:53:39.750Z,1007.54
2018-04-16T02:54:39.801Z,1007.56
2018-04-16T02:55:40.034Z,1007.6
2018-04-16T02:56:40.047Z,1007.56
2018-04-16T02:57:40.180Z,1007.6
2018-04-16T02:58:40.235Z,1007.62
2018-04-16T02:59:40.649Z,1007.62
2018-04-16T03:00:40.668Z,1007.64
2018-04-16T03:01:40.718Z,1007.64
2018-04-16T03:02:40.943Z,1007.63
2018-04-16T03:03:40.964Z,1007.66
2018-04-16T03:04:40.994Z,1007.64
2018-04-16T03:05:41.045Z,1007.63
2018-04-16T03:06:41.057Z,1007.63
2018-04-16T03:07:41.453Z,1007.61
2018-04-16T03:08:41.655Z,1007.62
2018-04-16T03:09:41.684Z,1007.63
2018-04-16T03:10:41.734Z,1007.61
2018-04-16T03:11:41.850Z,1007.61
2018-04-16T03:12:41.979Z,1007.65
2018-04-16T03:13:42.363Z,1007.62
2018-04-16T03:14:42.357Z,1007.66
2018-04-16T03:15:42.410Z,1007.65
2018-04-16T03:16:42.602Z,1007.67
2018-04-16T03:17:43.048Z,1007.67
2018-04-16T03:18:43.202Z,1007.67
2018-04-16T03:19:43.383Z,1007.68
2018-04-16T03:20:43.404Z,1007.69
2018-04-16T03:21:43.424Z,1007.71
2018-04-16T03:22:43.640Z,1007.75
2018-04-16T03:23:43.662Z,1007.72
2018-04-16T03:24:44.047Z,1007.72
2018-04-16T03:25:44.193Z,1007.74
2018-04-16T03:26:44.244Z,1007.76
2018-04-16T03:27:44.625Z,1007.76
2018-04-16T03:28:44.654Z,1007.81
2018-04-16T03:29:44.790Z,1007.78
2018-04-16T03:30:45.248Z,1007.82
2018-04-16T03:31:45.303Z,1007.82
2018-04-16T03:32:45.310Z,1007.83
2018-04-16T03:33:45.738Z,1007.84
2018-04-16T03:34:45.813Z,1007.84
2018-04-16T03:35:45.795Z,1007.85
2018-04-16T03:36:45.842Z,1007.84
2018-04-16T03:37:46.000Z,1007.8
2018-04-16T03:38:46.268Z,1007.84
2018-04-16T03:39:46.611Z,1007.83
2018-04-16T03:40:46.757Z,1007.85
2018-04-16T03:41:46.900Z,1007.78
2018-04-16T03:42:46.933Z,1007.82
2018-04-16T03:43:46.940Z,1007.84
2018-04-16T03:44:47.463Z,1007.74
2018-04-16T03:45:47.466Z,1007.8
2018-04-16T03:46:47.687Z,1007.8
2018-04-16T03:47:47.817Z,1007.78
2018-04-16T03:48:47.864Z,1007.79
2018-04-16T03:49:47.872Z,1007.74
2018-04-16T03:50:48.068Z,1007.82
2018-04-16T03:51:48.449Z,1007.82
2018-04-16T03:52:48.468Z,1007.85
2018-04-16T03:53:48.569Z,1007.9
2018-04-16T03:54:48.969Z,1007.9
2018-04-16T03:55:48.997Z,1007.92
2018-04-16T03:56:49.452Z,1007.96
2018-04-16T03:57:49.566Z,1007.96
2018-04-16T03:58:49.597Z,1008.02
2018-04-16T03:59:49.609Z,1007.99
2018-04-16T04:00:49.647Z,1008.06
2018-04-16T04:01:49.679Z,1008.09
2018-04-16T04:02:49.786Z,1008.11
2018-04-16T04:03:49.888Z,1008.1
2018-04-16T04:04:49.908Z,1008.03
2018-04-16T04:05:49.937Z,1008.05
2018-04-16T04:06:49.972Z,1008.04
2018-04-16T04:07:50.088Z,1008.01
2018-04-16T04:08:50.487Z,1008
2018-04-16T04:09:50.681Z,1008.02
2018-04-16T04:10:50.972Z,1008.06
2018-04-16T04:11:51.381Z,1008.09
2018-04-16T04:12:51.506Z,1008.07
2018-04-16T04:13:51.461Z,1008.13
2018-04-16T04:14:51.596Z,1008.09
2018-04-16T04:15:51.721Z,1008.13
2018-04-16T04:16:52.145Z,1008.12
2018-04-16T04:17:52.165Z,1008.14
2018-04-16T04:18:52.188Z,1008.11
2018-04-16T04:19:52.232Z,1008.1
2018-04-16T04:20:52.463Z,1008.12
2018-04-16T04:21:52.410Z,1008.13
2018-04-16T04:22:53.234Z,1008.13
2018-04-16T04:23:53.177Z,1008.13
2018-04-16T04:24:53.198Z,1008.15
2018-04-16T04:25:53.217Z,1008.16
2018-04-16T04:26:53.322Z,1008.23
2018-04-16T04:27:53.470Z,1008.17
2018-04-16T04:28:53.866Z,1008.14
2018-04-16T04:29:54.245Z,1008.14
2018-04-16T04:30:54.426Z,1008.15
2018-04-16T04:31:54.831Z,1008.17
2018-04-16T04:32:54.882Z,1008.18
2018-04-16T04:33:55.248Z,1008.18
2018-04-16T04:34:55.280Z,1008.16
2018-04-16T04:35:55.312Z,1008.2
2018-04-16T04:36:55.396Z,1008.22
2018-04-16T04:37:55.352Z,1008.27
2018-04-16T04:38:55.588Z,1008.29
2018-04-16T04:39:55.616Z,1008.24
2018-04-16T04:40:55.649Z,1008.27
2018-04-16T04:41:55.664Z,1008.26
2018-04-16T04:42:55.697Z,1008.27
2018-04-16T04:43:56.098Z,1008.23
2018-04-16T04:44:56.280Z,1008.25
2018-04-16T04:45:56.310Z,1008.22
2018-04-16T04:46:56.336Z,1008.21
2018-04-16T04:47:56.488Z,1008.27
2018-04-16T04:48:56.941Z,1008.25
2018-04-16T04:49:56.967Z,1008.27
2018-04-16T04:50:57.326Z,1008.31
2018-04-16T04:51:57.265Z,1008.29
2018-04-16T04:52:57.472Z,1008.32
2018-04-16T04:53:57.490Z,1008.34
2018-04-16T04:54:57.521Z,1008.33
2018-04-16T04:55:57.725Z,1008.37
2018-04-16T04:56:58.020Z,1008.36
2018-04-16T04:57:58.030Z,1008.4
2018-04-16T04:58:58.064Z,1008.4
2018-04-16T04:59:58.578Z,1008.43
2018-04-16T05:00:58.569Z,1008.45
2018-04-16T05:01:58.608Z,1008.43
2018-04-16T05:02:58.630Z,1008.48
2018-04-16T05:03:58.664Z,1008.5
2018-04-16T05:04:58.688Z,1008.51
2018-04-16T05:05:58.730Z,1008.48
2018-04-16T05:06:58.751Z,1008.46
2018-04-16T05:07:58.778Z,1008.45
2018-04-16T05:08:58.813Z,1008.49
2018-04-16T05:09:58.840Z,1008.43
2018-04-16T05:10:58.897Z,1008.46
2018-04-16T05:11:59.259Z,1008.51
2018-04-16T05:12:59.280Z,1008.51
2018-04-16T05:13:59.496Z,1008.52
2018-04-16T05:14:59.788Z,1008.57
2018-04-16T05:15:59.819Z,1008.58
2018-04-16T05:16:59.862Z,1008.59
2018-04-16T05:17:59.872Z,1008.57
2018-04-16T05:19:00.186Z,1008.59
2018-04-16T05:20:00.240Z,1008.56
2018-04-16T05:21:00.262Z,1008.58
2018-04-16T05:22:00.581Z,1008.56
2018-04-16T05:23:00.854Z,1008.65
2018-04-16T05:24:01.099Z,1008.71
2018-04-16T05:25:01.146Z,1008.69
2018-04-16T05:26:01.167Z,1008.71
2018-04-16T05:27:01.193Z,1008.71
2018-04-16T05:28:01.432Z,1008.74
2018-04-16T05:29:01.469Z,1008.78
2018-04-16T05:30:01.499Z,1008.78
2018-04-16T05:31:01.668Z,1008.81
2018-04-16T05:32:01.691Z,1008.85
2018-04-16T05:33:01.722Z,1008.85
2018-04-16T05:34:01.760Z,1008.87
2018-04-16T05:35:01.830Z,1008.88
2018-04-16T05:36:01.867Z,1008.91
2018-04-16T05:37:02.082Z,1008.89
2018-04-16T05:38:02.558Z,1008.94
2018-04-16T05:39:02.610Z,1008.98
2018-04-16T05:40:02.624Z,1009.01
2018-04-16T05:41:02.651Z,1008.93
2018-04-16T05:42:02.686Z,1008.97
2018-04-16T05:43:02.735Z,1008.99
2018-04-16T05:44:03.057Z,1009.07
2018-04-16T05:45:03.299Z,1009.07
2018-04-16T05:46:03.253Z,1009.05
2018-04-16T05:47:03.516Z,1009.12
2018-04-16T05:48:03.588Z,1009.08
2018-04-16T05:49:03.577Z,1009.11
2018-04-16T05:50:03.643Z,1009.11
2018-04-16T05:51:03.637Z,1009.15
2018-04-16T05:52:03.676Z,1009.12
2018-04-16T05:53:03.715Z,1009.22
2018-04-16T05:54:03.797Z,1009.21
2018-04-16T05:55:03.791Z,1009.19
2018-04-16T05:56:03.796Z,1009.24
2018-04-16T05:57:03.946Z,1009.26
2018-04-16T05:58:03.981Z,1009.25
2018-04-16T05:59:03.923Z,1009.26
2018-04-16T06:00:10.221Z,1009.28
2018-04-16T06:01:04.031Z,1009.3
2018-04-16T06:02:04.182Z,1009.34
2018-04-16T06:03:04.033Z,1009.31
2018-04-16T06:04:04.256Z,1009.43
2018-04-16T06:05:04.206Z,1009.42
2018-04-16T06:06:04.274Z,1009.46
2018-04-16T06:07:04.631Z,1009.49
2018-04-16T06:08:04.820Z,1009.54
2018-04-16T06:09:04.832Z,1009.57
2018-04-16T06:10:04.894Z,1009.54
2018-04-16T06:11:05.411Z,1009.53
2018-04-16T06:12:05.397Z,1009.59
2018-04-16T06:13:05.418Z,1009.61
2018-04-16T06:14:05.468Z,1009.52
2018-04-16T06:15:05.468Z,1009.55
2018-04-16T06:16:05.468Z,1009.55
2018-04-16T06:17:05.527Z,1009.5
2018-04-16T06:18:05.586Z,1009.55
2018-04-16T06:19:05.986Z,1009.57
2018-04-16T06:20:05.974Z,1009.52
2018-04-16T06:21:06.314Z,1009.61
2018-04-16T06:22:06.361Z,1009.6
2018-04-16T06:23:07.252Z,1009.62
2018-04-16T06:24:07.140Z,1009.61
2018-04-16T06:25:07.608Z,1009.59
2018-04-16T06:26:07.935Z,1009.62
2018-04-16T06:27:07.676Z,1009.65
2018-04-16T06:28:07.696Z,1009.68
2018-04-16T06:29:07.902Z,1009.64
2018-04-16T06:30:07.960Z,1009.67
2018-04-16T06:31:07.737Z,1009.64
2018-04-16T06:32:07.982Z,1009.66
2018-04-16T06:33:07.975Z,1009.69
2018-04-16T06:34:07.720Z,1009.68
2018-04-16T06:35:07.820Z,1009.67
2018-04-16T06:36:07.785Z,1009.68
2018-04-16T06:37:07.940Z,1009.68
2018-04-16T06:38:07.897Z,1009.64
2018-04-16T06:39:07.865Z,1009.68
2018-04-16T06:40:07.894Z,1009.69
2018-04-16T06:41:08.045Z,1009.69
2018-04-16T06:42:08.008Z,1009.75
2018-04-16T06:43:07.989Z,1009.74
2018-04-16T06:44:08.023Z,1009.76
2018-04-16T06:45:08.113Z,1009.74
2018-04-16T06:46:08.075Z,1009.78
2018-04-16T06:47:08.108Z,1009.81
2018-04-16T06:48:08.143Z,1009.81
2018-04-16T06:49:08.171Z,1009.85
2018-04-16T06:50:08.203Z,1009.84
2018-04-16T06:51:08.323Z,1009.88
2018-04-16T06:52:08.345Z,1009.91
2018-04-16T06:53:08.434Z,1009.9
2018-04-16T06:54:08.416Z,1009.96
2018-04-16T06:55:08.443Z,1009.95
2018-04-16T06:56:08.477Z,1009.99
2018-04-16T06:57:08.506Z,1009.97
2018-04-16T06:58:08.735Z,1009.94
2018-04-16T06:59:08.779Z,1009.97
2018-04-16T07:00:08.818Z,1009.98
2018-04-16T07:01:09.199Z,1010.06
2018-04-16T07:02:09.354Z,1010.04
2018-04-16T07:03:09.678Z,1010.03
2018-04-16T07:04:09.762Z,1010.04
2018-04-16T07:05:10.171Z,1010.07
2018-04-16T07:06:10.446Z,1010.04
2018-04-16T07:07:10.912Z,1010.03
2018-04-16T07:08:10.942Z,1010.05
2018-04-16T07:09:11.138Z,1010.05
2018-04-16T07:10:11.311Z,1010.09
2018-04-16T07:11:11.530Z,1010.12
2018-04-16T07:12:11.681Z,1010.15
2018-04-16T07:13:11.711Z,1010.18
2018-04-16T07:14:11.863Z,1010.18
2018-04-16T07:15:11.916Z,1010.19
2018-04-16T07:16:11.927Z,1010.19
2018-04-16T07:17:12.331Z,1010.16
2018-04-16T07:18:12.509Z,1010.22
2018-04-16T07:19:12.611Z,1010.21
2018-04-16T07:20:12.675Z,1010.22
2018-04-16T07:21:12.831Z,1010.22
2018-04-16T07:22:12.943Z,1010.25
2018-04-16T07:23:13.255Z,1010.3
2018-04-16T07:24:13.361Z,1010.28
2018-04-16T07:25:13.320Z,1010.35
2018-04-16T07:26:13.439Z,1010.34
2018-04-16T07:27:13.453Z,1010.35
2018-04-16T07:28:13.516Z,1010.35
2018-04-16T07:29:13.725Z,1010.33
2018-04-16T07:30:14.405Z,1010.37
2018-04-16T07:31:14.345Z,1010.37
2018-04-16T07:32:14.425Z,1010.35
2018-04-16T07:33:14.415Z,1010.39
2018-04-16T07:34:14.859Z,1010.37
2018-04-16T07:35:15.046Z,1010.42
2018-04-16T07:36:15.959Z,1010.38
2018-04-16T07:37:15.690Z,1010.37
2018-04-16T07:38:16.134Z,1010.38
2018-04-16T07:39:16.126Z,1010.43
2018-04-16T07:40:16.246Z,1010.4
2018-04-16T07:41:16.269Z,1010.41
2018-04-16T07:42:16.317Z,1010.4
2018-04-16T07:43:16.381Z,1010.44
2018-04-16T07:44:16.362Z,1010.46
2018-04-16T07:45:16.825Z,1010.46
2018-04-16T07:46:17.038Z,1010.49
2018-04-16T07:47:17.429Z,1010.49
2018-04-16T07:48:17.469Z,1010.48
2018-04-16T07:49:17.661Z,1010.47
2018-04-16T07:50:17.833Z,1010.51
2018-04-16T07:51:17.842Z,1010.51
2018-04-16T07:52:18.020Z,1010.59
2018-04-16T07:53:18.449Z,1010.55
2018-04-16T07:54:19.044Z,1010.51
2018-04-16T07:55:19.002Z,1010.54
2018-04-16T07:56:19.020Z,1010.6
2018-04-16T07:57:19.286Z,1010.52
2018-04-16T07:58:20.182Z,1010.57
2018-04-16T07:59:19.776Z,1010.57
2018-04-16T08:00:19.811Z,1010.57
2018-04-16T08:01:19.836Z,1010.58
2018-04-16T08:02:19.870Z,1010.59
2018-04-16T08:03:19.891Z,1010.57
2018-04-16T08:04:20.164Z,1010.6
2018-04-16T08:05:20.217Z,1010.58
2018-04-16T08:06:20.323Z,1010.64
2018-04-16T08:07:20.279Z,1010.57
2018-04-16T08:08:20.325Z,1010.6
2018-04-16T08:09:20.370Z,1010.62
2018-04-16T08:10:20.646Z,1010.64
2018-04-16T08:11:20.750Z,1010.62
2018-04-16T08:12:20.679Z,1010.62
2018-04-16T08:13:20.741Z,1010.64
2018-04-16T08:14:21.101Z,1010.67
2018-04-16T08:15:20.793Z,1010.66
2018-04-16T08:16:20.828Z,1010.67
2018-04-16T08:17:20.841Z,1010.7
2018-04-16T08:18:21.634Z,1010.65
2018-04-16T08:19:21.650Z,1010.71
2018-04-16T08:20:21.706Z,1010.67
2018-04-16T08:21:21.687Z,1010.71
2018-04-16T08:22:21.855Z,1010.69
2018-04-16T08:23:21.880Z,1010.67
2018-04-16T08:24:21.895Z,1010.65
2018-04-16T08:25:21.937Z,1010.62
2018-04-16T08:26:22.340Z,1010.64
2018-04-16T08:27:22.372Z,1010.65
2018-04-16T08:28:22.539Z,1010.67
2018-04-16T08:29:22.566Z,1010.66
2018-04-16T08:30:22.930Z,1010.71
2018-04-16T08:31:22.953Z,1010.68
2018-04-16T08:32:23.136Z,1010.63
2018-04-16T08:33:23.577Z,1010.66
2018-04-16T08:34:23.844Z,1010.69
2018-04-16T08:35:23.764Z,1010.65
2018-04-16T08:36:24.215Z,1010.68
2018-04-16T08:37:24.383Z,1010.68
2018-04-16T08:38:24.415Z,1010.74
2018-04-16T08:39:24.458Z,1010.72
2018-04-16T08:40:24.484Z,1010.73
2018-04-16T08:41:24.514Z,1010.71
2018-04-16T08:42:24.556Z,1010.73
2018-04-16T08:43:25.070Z,1010.72
2018-04-16T08:44:25.102Z,1010.71
2018-04-16T08:45:25.290Z,1010.74
2018-04-16T08:46:25.332Z,1010.7
2018-04-16T08:47:25.300Z,1010.66
2018-04-16T08:48:26.207Z,1010.56
2018-04-16T08:49:26.225Z,1010.53
2018-04-16T08:50:26.268Z,1010.55
2018-04-16T08:51:26.239Z,1010.53
2018-04-16T08:52:26.271Z,1010.54
2018-04-16T08:53:26.298Z,1010.55
2018-04-16T08:54:26.409Z,1010.53
2018-04-16T08:55:26.540Z,1010.57
2018-04-16T08:56:27.160Z,1010.58
2018-04-16T08:57:27.201Z,1010.59
2018-04-16T08:58:27.634Z,1010.62
2018-04-16T08:59:28.037Z,1010.56
2018-04-16T09:00:28.617Z,1010.63
2018-04-16T09:01:28.327Z,1010.58
2018-04-16T09:02:28.142Z,1010.6
2018-04-16T09:03:28.778Z,1010.62
2018-04-16T09:04:29.088Z,1010.62
2018-04-16T09:05:28.762Z,1010.62
2018-04-16T09:06:28.777Z,1010.57
2018-04-16T09:07:28.814Z,1010.57
2018-04-16T09:08:28.945Z,1010.58
2018-04-16T09:09:29.200Z,1010.55
2018-04-16T09:10:29.029Z,1010.48
2018-04-16T09:11:28.991Z,1010.46
2018-04-16T09:12:29.182Z,1010.5
2018-04-16T09:13:29.214Z,1010.47
2018-04-16T09:14:29.258Z,1010.5
2018-04-16T09:15:29.304Z,1010.48
2018-04-16T09:16:29.562Z,1010.49
2018-04-16T09:17:29.368Z,1010.48
2018-04-16T09:18:29.508Z,1010.45
2018-04-16T09:19:29.590Z,1010.46
2018-04-16T09:20:29.604Z,1010.42
2018-04-16T09:21:29.588Z,1010.42
2018-04-16T09:22:29.779Z,1010.47
2018-04-16T09:23:30.440Z,1010.48
2018-04-16T09:24:30.547Z,1010.5
2018-04-16T09:25:30.445Z,1010.48
2018-04-16T09:26:30.511Z,1010.46
2018-04-16T09:27:30.763Z,1010.47
2018-04-16T09:28:31.209Z,1010.41
2018-04-16T09:29:31.240Z,1010.45
2018-04-16T09:30:31.274Z,1010.48
2018-04-16T09:31:31.290Z,1010.45
2018-04-16T09:32:31.495Z,1010.47
2018-04-16T09:33:31.529Z,1010.47
2018-04-16T09:34:31.567Z,1010.43
2018-04-16T09:35:31.590Z,1010.4
2018-04-16T09:36:31.628Z,1010.39
2018-04-16T09:37:31.791Z,1010.41
2018-04-16T09:38:32.197Z,1010.37
2018-04-16T09:39:32.236Z,1010.36
2018-04-16T09:40:32.261Z,1010.37
2018-04-16T09:41:32.289Z,1010.3
2018-04-16T09:42:32.924Z,1010.31
2018-04-16T09:43:32.727Z,1010.34
2018-04-16T09:44:33.166Z,1010.32
2018-04-16T09:45:33.204Z,1010.33
2018-04-16T09:46:33.223Z,1010.33
2018-04-16T09:47:33.515Z,1010.38
2018-04-16T09:48:33.404Z,1010.35
2018-04-16T09:49:33.652Z,1010.32
2018-04-16T09:50:33.690Z,1010.35
2018-04-16T09:51:33.492Z,1010.3
2018-04-16T09:52:33.757Z,1010.33
2018-04-16T09:53:33.778Z,1010.37
2018-04-16T09:54:33.799Z,1010.3
2018-04-16T09:55:33.831Z,1010.34
2018-04-16T09:56:33.929Z,1010.38
2018-04-16T09:57:33.908Z,1010.38
2018-04-16T09:58:34.288Z,1010.39
2018-04-16T09:59:34.620Z,1010.4
2018-04-16T10:00:34.650Z,1010.37
2018-04-16T10:01:34.678Z,1010.38
2018-04-16T10:02:34.753Z,1010.44
2018-04-16T10:03:34.727Z,1010.43
2018-04-16T10:04:34.941Z,1010.43
2018-04-16T10:05:34.983Z,1010.43
2018-04-16T10:06:34.948Z,1010.45
2018-04-16T10:07:35.222Z,1010.4
2018-04-16T10:08:35.036Z,1010.45
2018-04-16T10:09:35.043Z,1010.46
2018-04-16T10:10:35.088Z,1010.43
2018-04-16T10:11:35.506Z,1010.43
2018-04-16T10:12:35.539Z,1010.44
2018-04-16T10:13:35.553Z,1010.49
2018-04-16T10:14:35.595Z,1010.41
2018-04-16T10:15:36.008Z,1010.47
2018-04-16T10:16:36.046Z,1010.42
2018-04-16T10:17:36.071Z,1010.45
2018-04-16T10:18:36.108Z,1010.4
2018-04-16T10:19:36.140Z,1010.41
2018-04-16T10:20:36.784Z,1010.4
2018-04-16T10:21:36.808Z,1010.41
2018-04-16T10:22:36.845Z,1010.4
2018-04-16T10:23:36.872Z,1010.44
2018-04-16T10:24:37.349Z,1010.42
2018-04-16T10:25:37.296Z,1010.39
2018-04-16T10:26:37.331Z,1010.41
2018-04-16T10:27:37.361Z,1010.39
2018-04-16T10:28:37.399Z,1010.43
2018-04-16T10:29:37.413Z,1010.35
2018-04-16T10:30:37.553Z,1010.41
2018-04-16T10:31:38.243Z,1010.39
2018-04-16T10:32:38.223Z,1010.36
2018-04-16T10:33:38.634Z,1010.4
2018-04-16T10:34:38.673Z,1010.38
2018-04-16T10:35:38.788Z,1010.3
2018-04-16T10:36:38.803Z,1010.33
2018-04-16T10:37:38.839Z,1010.37
2018-04-16T10:38:38.885Z,1010.38
2018-04-16T10:39:38.906Z,1010.42
2018-04-16T10:40:39.360Z,1010.46
2018-04-16T10:41:39.449Z,1010.46
2018-04-16T10:42:39.631Z,1010.46
2018-04-16T10:43:39.928Z,1010.43
2018-04-16T10:44:39.950Z,1010.5
2018-04-16T10:45:39.996Z,1010.56
2018-04-16T10:46:40.407Z,1010.47
2018-04-16T10:47:41.056Z,1010.43
2018-04-16T10:48:40.986Z,1010.39
2018-04-16T10:49:41.037Z,1010.42
2018-04-16T10:50:41.074Z,1010.44
2018-04-16T10:51:41.238Z,1010.49
2018-04-16T10:52:41.295Z,1010.5
2018-04-16T10:53:41.450Z,1010.47
2018-04-16T10:54:41.323Z,1010.52
2018-04-16T10:55:41.371Z,1010.54
2018-04-16T10:56:41.461Z,1010.56
2018-04-16T10:57:41.267Z,1010.59
2018-04-16T10:58:41.190Z,1010.55
2018-04-16T10:59:41.237Z,1010.56
2018-04-16T11:00:41.259Z,1010.6
2018-04-16T11:01:41.290Z,1010.59
2018-04-16T11:02:41.469Z,1010.58
2018-04-16T11:03:41.493Z,1010.48
2018-04-16T11:04:41.525Z,1010.5
2018-04-16T11:05:41.560Z,1010.5
2018-04-16T11:06:41.591Z,1010.44
2018-04-16T11:07:41.630Z,1010.43
2018-04-16T11:08:41.729Z,1010.38
2018-04-16T11:09:41.760Z,1010.33
2018-04-16T11:10:41.726Z,1010.41
2018-04-16T11:11:42.124Z,1010.45
2018-04-16T11:12:42.276Z,1010.44
2018-04-16T11:13:42.453Z,1010.45
2018-04-16T11:14:43.125Z,1010.51
2018-04-16T11:15:43.393Z,1010.52
2018-04-16T11:16:43.213Z,1010.5
2018-04-16T11:17:43.237Z,1010.57
2018-04-16T11:18:43.888Z,1010.54
2018-04-16T11:19:43.679Z,1010.54
2018-04-16T11:20:44.501Z,1010.57
2018-04-16T11:21:44.449Z,1010.59
2018-04-16T11:22:44.464Z,1010.57
2018-04-16T11:23:44.509Z,1010.56
2018-04-16T11:24:44.523Z,1010.57
2018-04-16T11:25:44.984Z,1010.55
2018-04-16T11:26:45.001Z,1010.53
2018-04-16T11:27:45.035Z,1010.56
2018-04-16T11:28:45.077Z,1010.52
2018-04-16T11:29:45.119Z,1010.51
2018-04-16T11:30:45.360Z,1010.52
2018-04-16T11:31:45.385Z,1010.52
2018-04-16T11:32:45.811Z,1010.56
2018-04-16T11:33:45.843Z,1010.51
2018-04-16T11:34:45.876Z,1010.59
2018-04-16T11:35:45.909Z,1010.56
2018-04-16T11:36:45.939Z,1010.51
2018-04-16T11:37:45.974Z,1010.55
2018-04-16T11:38:46.014Z,1010.58
2018-04-16T11:39:46.398Z,1010.56
2018-04-16T11:40:46.431Z,1010.54
2018-04-16T11:41:46.464Z,1010.55
2018-04-16T11:42:46.503Z,1010.56
2018-04-16T11:43:46.827Z,1010.57
2018-04-16T11:44:47.295Z,1010.53
2018-04-16T11:45:47.320Z,1010.54
2018-04-16T11:46:47.348Z,1010.55
2018-04-16T11:47:47.781Z,1010.59
2018-04-16T11:48:47.885Z,1010.61
2018-04-16T11:49:47.947Z,1010.58
2018-04-16T11:50:47.948Z,1010.63
2018-04-16T11:51:48.375Z,1010.62
2018-04-16T11:52:49.123Z,1010.66
2018-04-16T11:53:49.011Z,1010.66
2018-04-16T11:54:49.178Z,1010.67
2018-04-16T11:55:49.012Z,1010.63
2018-04-16T11:56:49.206Z,1010.63
2018-04-16T11:57:49.220Z,1010.64
2018-04-16T11:58:49.039Z,1010.67
2018-04-16T11:59:49.307Z,1010.7
2018-04-16T12:00:49.039Z,1010.69
2018-04-16T12:01:49.161Z,1010.7
2018-04-16T12:02:49.319Z,1010.72
2018-04-16T12:03:49.309Z,1010.75
2018-04-16T12:04:49.353Z,1010.81
2018-04-16T12:05:49.403Z,1010.81
2018-04-16T12:06:49.409Z,1010.89
2018-04-16T12:07:49.757Z,1010.86
2018-04-16T12:08:49.712Z,1010.85